createdAt,value
2023-04-26T00:00:09.918Z,4.06
2023-04-26T00:02:40.098Z,3.88
2023-04-26T00:05:19.669Z,3.79
2023-04-26T00:07:50.539Z,3.81
2023-04-26T00:10:21.727Z,3.67
2023-04-26T00:12:50.600Z,3.63
2023-04-26T00:15:18.878Z,3.64
2023-04-26T00:17:48.611Z,3.55
2023-04-26T00:20:17.048Z,3.58
2023-04-26T00:22:45.224Z,3.49
2023-04-26T00:25:13.922Z,3.38
2023-04-26T00:27:42.156Z,3.32
2023-04-26T00:30:11.597Z,3.37
2023-04-26T00:32:39.867Z,3.27
2023-04-26T00:35:11.557Z,3.28
2023-04-26T00:37:39.847Z,3.20
2023-04-26T00:40:10.440Z,3.22
2023-04-26T00:42:39.758Z,3.18
2023-04-26T00:45:09.579Z,3.15
2023-04-26T00:47:38.164Z,2.35
2023-04-26T00:50:12.414Z,2.99
2023-04-26T00:52:41.221Z,3.11
2023-04-26T00:55:10.605Z,2.92
2023-04-26T00:57:39.070Z,2.95
2023-04-26T01:00:10.223Z,2.85
2023-04-26T01:02:38.810Z,2.30
2023-04-26T01:05:09.122Z,2.76
2023-04-26T01:07:39.950Z,2.63
2023-04-26T01:10:10.423Z,2.63
2023-04-26T01:12:39.539Z,2.66
2023-04-26T01:15:09.613Z,2.67
2023-04-26T01:17:38.351Z,2.72
2023-04-26T01:20:09.907Z,2.76
2023-04-26T01:22:39.660Z,2.69
2023-04-26T01:25:09.360Z,2.10
2023-04-26T01:27:37.646Z,2.39
2023-04-26T01:30:07.342Z,2.55
2023-04-26T01:32:36.016Z,2.40
2023-04-26T01:35:07.497Z,2.35
2023-04-26T01:37:35.886Z,2.42
2023-04-26T01:40:07.503Z,2.33
2023-04-26T01:42:35.746Z,2.28
2023-04-26T01:45:04.496Z,2.39
2023-04-26T01:47:52.845Z,2.35
2023-04-26T01:50:21.453Z,2.30
2023-04-26T01:52:49.704Z,2.33
2023-04-26T01:55:19.408Z,2.32
2023-04-26T01:57:48.012Z,2.28
2023-04-26T02:00:16.857Z,2.33
2023-04-26T02:02:46.479Z,2.22
2023-04-26T02:05:14.875Z,2.30
2023-04-26T02:07:43.187Z,2.39
2023-04-26T02:10:11.940Z,2.28
2023-04-26T02:12:41.856Z,2.34
2023-04-26T02:15:11.591Z,2.27
2023-04-26T02:17:40.123Z,2.10
2023-04-26T02:20:11.498Z,2.25
2023-04-26T02:22:39.781Z,2.20
2023-04-26T02:25:09.279Z,2.25
2023-04-26T02:27:37.477Z,2.16
2023-04-26T02:30:09.408Z,2.19
2023-04-26T02:32:39.595Z,2.19
2023-04-26T02:35:09.236Z,2.28
2023-04-26T02:37:37.468Z,2.07
2023-04-26T02:40:10.819Z,2.17
2023-04-26T02:42:39.195Z,2.08
2023-04-26T02:45:09.875Z,2.12
2023-04-26T02:47:38.783Z,1.57
2023-04-26T02:50:09.371Z,2.08
2023-04-26T02:52:38.605Z,1.93
2023-04-26T02:55:08.612Z,2.20
2023-04-26T02:57:36.821Z,2.21
2023-04-26T03:00:14.108Z,2.13
2023-04-26T03:02:42.877Z,2.13
2023-04-26T03:05:11.337Z,2.08
2023-04-26T03:07:39.658Z,2.05
2023-04-26T03:10:09.896Z,2.08
2023-04-26T03:12:38.742Z,2.02
2023-04-26T03:15:09.626Z,1.97
2023-04-26T03:17:38.667Z,2.03
2023-04-26T03:20:09.056Z,2.11
2023-04-26T03:22:37.497Z,2.13
2023-04-26T03:25:07.866Z,2.08
2023-04-26T03:27:36.708Z,2.15
2023-04-26T03:30:06.187Z,2.20
2023-04-26T03:32:38.507Z,2.00
2023-04-26T03:35:07.768Z,2.17
2023-04-26T03:37:36.038Z,2.13
2023-04-26T03:40:11.390Z,2.06
2023-04-26T03:42:39.634Z,2.14
2023-04-26T03:45:09.687Z,2.01
2023-04-26T03:47:39.339Z,2.06
2023-04-26T03:50:09.984Z,2.20
2023-04-26T03:52:39.407Z,2.04
2023-04-26T03:55:10.310Z,1.99
2023-04-26T03:57:39.115Z,1.99
2023-04-26T04:00:11.826Z,1.98
2023-04-26T04:02:45.684Z,1.90
2023-04-26T04:05:22.861Z,1.85
2023-04-26T04:08:23.522Z,2.01
2023-04-26T04:10:53.834Z,1.83
2023-04-26T04:13:22.045Z,1.86
2023-04-26T04:15:51.080Z,1.76
2023-04-26T04:18:21.201Z,1.88
2023-04-26T04:20:49.460Z,1.75
2023-04-26T04:23:18.197Z,1.79
2023-04-26T04:25:48.771Z,1.77
2023-04-26T04:28:17.446Z,1.82
2023-04-26T04:30:47.362Z,1.72
2023-04-26T04:33:16.345Z,1.76
2023-04-26T04:35:46.445Z,1.60
2023-04-26T04:38:14.902Z,1.68
2023-04-26T04:40:43.688Z,1.56
2023-04-26T04:43:12.403Z,1.73
2023-04-26T04:45:41.282Z,1.68
2023-04-26T04:48:11.818Z,1.49
2023-04-26T04:50:42.077Z,1.69
2023-04-26T04:53:12.704Z,1.63
2023-04-26T04:55:41.174Z,1.65
2023-04-26T04:58:10.974Z,1.69
2023-04-26T05:00:39.716Z,1.79
2023-04-26T05:03:22.853Z,1.79
2023-04-26T05:05:51.198Z,1.87
2023-04-26T05:08:20.862Z,1.97
2023-04-26T05:10:53.462Z,1.97
2023-04-26T05:13:21.799Z,2.04
2023-04-26T05:15:50.048Z,2.11
2023-04-26T05:18:18.295Z,2.18
2023-04-26T05:20:46.563Z,2.16
2023-04-26T05:23:14.872Z,2.30
2023-04-26T05:25:45.537Z,2.29
2023-04-26T05:28:39.750Z,2.41
2023-04-26T05:31:21.605Z,2.50
2023-04-26T05:34:06.954Z,2.49
2023-04-26T05:36:40.091Z,1.65
2023-04-26T05:39:08.448Z,2.65
2023-04-26T05:41:38.045Z,1.62
2023-04-26T05:44:06.261Z,2.90
2023-04-26T05:46:34.981Z,2.97
2023-04-26T05:49:03.250Z,3.13
2023-04-26T05:51:31.528Z,3.19
2023-04-26T05:54:00.841Z,3.19
2023-04-26T05:56:29.610Z,3.30
2023-04-26T05:58:59.375Z,3.47
2023-04-26T06:01:32.831Z,3.46
2023-04-26T06:04:01.793Z,3.71
2023-04-26T06:06:37.069Z,3.96
2023-04-26T06:09:56.404Z,3.90
2023-04-26T06:12:24.794Z,4.05
2023-04-26T06:14:55.279Z,4.17
2023-04-26T06:17:26.926Z,4.24
2023-04-26T06:19:55.384Z,4.42
2023-04-26T06:22:24.334Z,4.58
2023-04-26T06:24:52.543Z,4.60
2023-04-26T06:27:20.900Z,4.61
2023-04-26T06:29:50.595Z,4.73
2023-04-26T06:32:20.980Z,4.92
2023-04-26T06:34:49.520Z,5.09
2023-04-26T06:37:18.033Z,5.04
2023-04-26T06:39:46.736Z,4.91
2023-04-26T06:42:15.075Z,5.39
2023-04-26T06:45:02.248Z,5.61
2023-04-26T06:47:35.561Z,5.54
2023-04-26T06:50:05.891Z,5.53
2023-04-26T06:52:34.407Z,5.47
2023-04-26T06:55:03.986Z,5.72
2023-04-26T06:57:32.227Z,5.79
2023-04-26T07:00:00.455Z,5.80
2023-04-26T07:02:28.941Z,6.07
2023-04-26T07:04:58.753Z,6.10
2023-04-26T07:07:27.441Z,5.91
2023-04-26T07:09:55.703Z,6.15
2023-04-26T07:12:23.940Z,6.33
2023-04-26T07:14:52.111Z,6.37
2023-04-26T07:17:21.603Z,6.55
2023-04-26T07:19:49.853Z,6.54
2023-04-26T07:22:19.702Z,6.86
2023-04-26T07:24:47.903Z,6.77
2023-04-26T07:27:16.400Z,6.94
2023-04-26T07:29:44.621Z,7.03
2023-04-26T07:32:13.244Z,7.00
2023-04-26T07:34:41.983Z,7.11
2023-04-26T07:37:10.203Z,7.02
2023-04-26T07:39:39.809Z,7.23
2023-04-26T07:42:08.072Z,7.24
2023-04-26T07:44:36.500Z,7.34
2023-04-26T07:47:04.788Z,7.63
2023-04-26T07:49:33.402Z,7.68
2023-04-26T07:52:02.522Z,7.83
2023-04-26T07:54:31.011Z,7.71
2023-04-26T07:57:01.898Z,8.03
2023-04-26T07:59:32.962Z,8.02
2023-04-26T08:04:55.532Z,8.26
2023-04-26T08:07:23.857Z,8.16
2023-04-26T08:09:52.273Z,8.61
2023-04-26T08:12:21.944Z,8.71
2023-04-26T08:14:50.941Z,8.57
2023-04-26T08:17:19.360Z,8.69
2023-04-26T08:19:47.562Z,8.67
2023-04-26T08:22:15.872Z,8.81
2023-04-26T08:24:48.692Z,8.00
2023-04-26T08:27:17.053Z,8.64
2023-04-26T08:29:47.454Z,8.60
2023-04-26T08:32:16.345Z,8.71
2023-04-26T08:34:44.913Z,8.64
2023-04-26T08:37:15.238Z,8.74
2023-04-26T08:39:43.508Z,8.98
2023-04-26T08:42:16.494Z,8.96
2023-04-26T08:44:46.767Z,7.80
2023-04-26T08:47:20.563Z,8.58
2023-04-26T08:49:59.366Z,8.95
2023-04-26T08:52:30.958Z,8.91
2023-04-26T08:55:01.710Z,8.29
2023-04-26T08:57:33.852Z,8.02
2023-04-26T09:00:06.597Z,8.94
2023-04-26T09:02:36.679Z,8.42
2023-04-26T09:05:07.017Z,8.36
2023-04-26T09:07:43.359Z,8.66
2023-04-26T09:10:13.923Z,9.24
2023-04-26T09:12:42.322Z,9.46
2023-04-26T09:15:12.769Z,9.58
2023-04-26T09:17:42.179Z,8.99
2023-04-26T09:20:23.303Z,8.61
2023-04-26T09:22:53.998Z,8.30
2023-04-26T09:25:30.942Z,8.60
2023-04-26T09:28:00.374Z,8.54
2023-04-26T09:30:30.909Z,8.53
2023-04-26T09:33:03.539Z,9.09
2023-04-26T09:35:33.690Z,9.31
2023-04-26T09:38:09.622Z,9.40
2023-04-26T09:40:41.963Z,9.22
2023-04-26T09:43:12.722Z,8.58
2023-04-26T09:45:49.532Z,8.83
2023-04-26T09:48:22.521Z,9.07
2023-04-26T09:50:54.130Z,9.38
2023-04-26T09:53:34.758Z,8.96
2023-04-26T09:56:10.991Z,9.00
2023-04-26T09:58:41.354Z,8.80
2023-04-26T10:01:12.586Z,8.62
2023-04-26T10:03:42.884Z,9.40
2023-04-26T10:06:11.932Z,9.76
2023-04-26T10:08:40.851Z,10.33
2023-04-26T10:11:11.554Z,10.42
2023-04-26T10:13:40.482Z,10.43
2023-04-26T10:16:10.999Z,10.57
2023-04-26T10:18:40.109Z,10.75
2023-04-26T10:21:14.753Z,10.80
2023-04-26T10:23:43.550Z,10.98
2023-04-26T10:26:48.712Z,10.77
2023-04-26T10:29:17.387Z,10.32
2023-04-26T10:32:11.989Z,10.22
2023-04-26T10:34:40.478Z,10.05
2023-04-26T10:37:11.312Z,10.01
2023-04-26T10:39:40.307Z,9.83
2023-04-26T10:42:26.657Z,10.06
2023-04-26T10:44:56.515Z,10.02
2023-04-26T10:47:32.556Z,9.57
2023-04-26T10:50:07.354Z,9.54
2023-04-26T10:52:36.820Z,9.10
2023-04-26T10:55:06.785Z,9.41
2023-04-26T10:57:52.552Z,9.13
2023-04-26T11:00:31.941Z,9.48
2023-04-26T11:03:08.871Z,9.42
2023-04-26T11:05:54.161Z,9.57
2023-04-26T11:08:26.853Z,9.71
2023-04-26T11:11:13.381Z,9.77
2023-04-26T11:13:43.474Z,10.07
2023-04-26T11:16:13.775Z,10.11
2023-04-26T11:18:45.079Z,9.81
2023-04-26T11:21:17.982Z,9.75
2023-04-26T11:23:56.304Z,9.63
2023-04-26T11:26:25.035Z,9.76
2023-04-26T11:28:53.425Z,9.50
2023-04-26T11:31:22.190Z,9.57
2023-04-26T11:33:51.864Z,9.76
2023-04-26T11:36:20.912Z,9.97
2023-04-26T11:38:49.129Z,9.73
2023-04-26T11:41:17.433Z,10.54
2023-04-26T11:43:45.722Z,10.72
2023-04-26T11:46:13.995Z,11.44
2023-04-26T11:48:42.524Z,11.74
2023-04-26T11:51:12.946Z,12.09
2023-04-26T11:53:43.092Z,11.86
2023-04-26T11:56:18.082Z,12.21
2023-04-26T11:58:48.294Z,12.25
2023-04-26T12:01:24.146Z,12.00
2023-04-26T12:03:54.426Z,12.01
2023-04-26T12:06:32.939Z,11.74
2023-04-26T12:09:28.284Z,11.44
2023-04-26T12:12:02.129Z,10.63
2023-04-26T12:14:34.241Z,10.75
2023-04-26T12:17:03.320Z,11.10
2023-04-26T12:19:35.099Z,11.35
2023-04-26T12:22:04.819Z,11.82
2023-04-26T12:24:35.798Z,11.91
2023-04-26T12:27:06.175Z,11.91
2023-04-26T12:29:34.893Z,11.85
2023-04-26T12:32:04.236Z,11.78
2023-04-26T12:34:32.669Z,11.47
2023-04-26T12:37:00.959Z,10.51
2023-04-26T12:39:30.707Z,10.90
2023-04-26T12:41:58.933Z,10.95
2023-04-26T12:44:27.631Z,11.03
2023-04-26T12:46:55.910Z,10.95
2023-04-26T12:49:24.111Z,11.18
2023-04-26T12:51:52.326Z,11.15
2023-04-26T12:54:20.528Z,11.17
2023-04-26T12:56:50.079Z,11.30
2023-04-26T12:59:18.285Z,11.09
2023-04-26T13:01:46.461Z,11.07
2023-04-26T13:04:15.261Z,10.98
2023-04-26T13:06:43.726Z,11.26
2023-04-26T13:09:13.813Z,11.48
2023-04-26T13:11:42.044Z,11.34
2023-04-26T13:14:11.893Z,11.45
2023-04-26T13:16:43.770Z,11.20
2023-04-26T13:19:12.181Z,11.17
2023-04-26T13:21:42.106Z,11.24
2023-04-26T13:24:10.633Z,11.26
2023-04-26T13:26:38.892Z,11.42
2023-04-26T13:29:07.136Z,11.40
2023-04-26T13:31:36.993Z,11.28
2023-04-26T13:34:06.851Z,11.59
2023-04-26T13:36:35.187Z,11.47
2023-04-26T13:39:05.058Z,12.21
2023-04-26T13:41:34.974Z,12.96
2023-04-26T13:44:04.405Z,13.11
2023-04-26T13:46:32.668Z,12.73
2023-04-26T13:49:02.296Z,12.85
2023-04-26T13:51:32.412Z,12.70
2023-04-26T13:54:00.672Z,13.35
2023-04-26T13:56:29.100Z,13.60
2023-04-26T13:58:57.476Z,13.65
2023-04-26T14:01:26.297Z,13.73
2023-04-26T14:03:56.113Z,13.18
2023-04-26T14:06:27.040Z,12.42
2023-04-26T14:08:55.998Z,12.67
2023-04-26T14:11:25.678Z,12.90
2023-04-26T14:13:56.113Z,13.30
2023-04-26T14:16:24.756Z,13.16
2023-04-26T14:18:53.261Z,13.86
2023-04-26T14:21:21.995Z,14.07
2023-04-26T14:23:52.282Z,14.41
2023-04-26T14:26:21.454Z,14.49
2023-04-26T14:28:49.699Z,14.65
2023-04-26T14:31:19.708Z,14.86
2023-04-26T14:33:48.025Z,14.93
2023-04-26T14:36:16.307Z,14.49
2023-04-26T14:38:44.934Z,13.89
2023-04-26T14:41:17.449Z,13.17
2023-04-26T14:43:47.136Z,12.80
2023-04-26T14:46:18.790Z,13.29
2023-04-26T14:48:47.472Z,13.31
2023-04-26T14:51:15.706Z,13.83
2023-04-26T14:53:43.877Z,14.04
2023-04-26T14:56:12.185Z,14.85
2023-04-26T14:58:41.902Z,14.60
2023-04-26T15:01:13.123Z,14.18
2023-04-26T15:03:42.035Z,13.99
2023-04-26T15:06:10.796Z,13.94
2023-04-26T15:08:39.103Z,13.74
2023-04-26T15:11:13.164Z,13.43
2023-04-26T15:13:42.883Z,13.45
2023-04-26T15:16:11.165Z,12.85
2023-04-26T15:18:39.411Z,12.89
2023-04-26T15:21:07.678Z,13.04
2023-04-26T15:23:36.128Z,13.72
2023-04-26T15:26:04.695Z,13.23
2023-04-26T15:28:33.041Z,13.52
2023-04-26T15:31:08.927Z,13.18
2023-04-26T15:33:37.608Z,12.93
2023-04-26T15:36:06.911Z,13.03
2023-04-26T15:38:36.547Z,12.89
2023-04-26T15:41:06.612Z,13.01
2023-04-26T15:43:34.864Z,12.86
2023-04-26T15:46:03.098Z,12.57
2023-04-26T15:48:32.706Z,12.23
2023-04-26T15:51:01.080Z,12.62
2023-04-26T15:53:31.253Z,13.00
2023-04-26T15:56:04.028Z,13.08
2023-04-26T15:58:39.856Z,13.37
2023-04-26T16:01:11.862Z,12.88
2023-04-26T16:04:08.307Z,12.74
2023-04-26T16:06:43.076Z,12.66
2023-04-26T16:09:48.774Z,13.19
2023-04-26T16:12:20.148Z,13.74
2023-04-26T16:14:53.586Z,13.66
2023-04-26T16:17:22.025Z,13.85
2023-04-26T16:19:52.267Z,14.49
2023-04-26T16:22:20.498Z,14.46
2023-04-26T16:24:51.976Z,13.54
2023-04-26T16:27:22.351Z,13.01
2023-04-26T16:29:50.611Z,12.86
2023-04-26T16:32:19.861Z,12.60
2023-04-26T16:34:50.081Z,12.65
2023-04-26T16:37:24.556Z,12.34
2023-04-26T16:39:57.236Z,11.68
2023-04-26T16:42:26.793Z,12.46
2023-04-26T16:44:58.371Z,12.78
2023-04-26T16:47:29.707Z,12.86
2023-04-26T16:49:58.632Z,12.23
2023-04-26T16:52:28.374Z,12.08
2023-04-26T16:54:59.207Z,12.20
2023-04-26T16:57:28.343Z,12.28
2023-04-26T16:59:57.670Z,12.16
2023-04-26T17:02:26.623Z,12.10
2023-04-26T17:04:56.167Z,12.01
2023-04-26T17:07:24.988Z,11.98
2023-04-26T17:09:58.108Z,11.90
2023-04-26T17:12:32.733Z,11.89
2023-04-26T17:15:07.526Z,12.11
2023-04-26T17:17:42.515Z,11.90
2023-04-26T17:20:14.013Z,11.92
2023-04-26T17:22:44.750Z,11.88
2023-04-26T17:25:14.751Z,11.62
2023-04-26T17:27:43.709Z,12.17
2023-04-26T17:30:13.023Z,11.84
2023-04-26T17:32:42.513Z,11.93
2023-04-26T17:35:11.022Z,12.06
2023-04-26T17:37:41.893Z,12.24
2023-04-26T17:40:11.654Z,12.65
2023-04-26T17:42:42.288Z,12.91
2023-04-26T17:45:13.551Z,12.94
2023-04-26T17:47:42.864Z,13.11
2023-04-26T17:50:13.949Z,12.77
2023-04-26T17:52:44.062Z,12.71
2023-04-26T17:55:12.270Z,12.64
2023-04-26T17:57:45.980Z,12.85
2023-04-26T18:00:19.901Z,12.01
2023-04-26T18:02:48.944Z,12.48
2023-04-26T18:05:18.495Z,12.08
2023-04-26T18:07:47.396Z,11.89
2023-04-26T18:10:15.837Z,11.30
2023-04-26T18:12:49.914Z,11.41
2023-04-26T18:15:18.775Z,11.41
2023-04-26T18:17:47.101Z,11.30
2023-04-26T18:20:15.542Z,11.17
2023-04-26T18:22:44.291Z,10.44
2023-04-26T18:25:12.581Z,10.94
2023-04-26T18:27:40.843Z,10.73
2023-04-26T18:30:12.846Z,10.66
2023-04-26T18:32:41.366Z,10.11
2023-04-26T18:35:10.644Z,10.23
2023-04-26T18:37:39.746Z,10.06
2023-04-26T18:40:09.870Z,9.77
2023-04-26T18:42:38.924Z,9.63
2023-04-26T18:45:08.840Z,9.39
2023-04-26T18:47:38.513Z,8.81
2023-04-26T18:50:08.455Z,9.12
2023-04-26T18:52:39.565Z,8.92
2023-04-26T18:55:08.616Z,8.92
2023-04-26T18:57:36.855Z,8.65
2023-04-26T19:00:07.953Z,8.48
2023-04-26T19:02:40.174Z,8.38
2023-04-26T19:05:12.037Z,8.16
2023-04-26T19:07:41.825Z,8.00
2023-04-26T19:10:11.470Z,7.89
2023-04-26T19:12:39.808Z,7.41
2023-04-26T19:15:09.490Z,7.60
2023-04-26T19:17:37.847Z,7.89
2023-04-26T19:20:12.415Z,7.65
2023-04-26T19:22:44.577Z,7.62
2023-04-26T19:25:12.847Z,7.46
2023-04-26T19:27:41.224Z,7.36
2023-04-26T19:30:10.928Z,7.52
2023-04-26T19:32:39.323Z,7.36
2023-04-26T19:35:09.917Z,7.35
2023-04-26T19:37:38.199Z,7.16
2023-04-26T19:40:10.089Z,7.23
2023-04-26T19:42:38.486Z,7.12
2023-04-26T19:45:08.341Z,6.70
2023-04-26T19:47:36.682Z,7.06
2023-04-26T19:50:05.735Z,7.08
2023-04-26T19:52:35.377Z,6.47
2023-04-26T19:55:03.614Z,5.94
2023-04-26T19:57:32.246Z,6.25
2023-04-26T20:00:00.488Z,6.81
2023-04-26T20:02:53.829Z,6.70
2023-04-26T20:05:22.552Z,6.77
2023-04-26T20:07:54.208Z,5.94
2023-04-26T20:10:26.796Z,6.68
2023-04-26T20:12:55.113Z,6.46
2023-04-26T20:15:23.613Z,6.87
2023-04-26T20:17:51.930Z,6.94
2023-04-26T20:20:20.523Z,6.82
2023-04-26T20:22:48.853Z,6.85
2023-04-26T20:25:19.804Z,6.86
2023-04-26T20:27:48.584Z,6.08
2023-04-26T20:30:17.302Z,6.42
2023-04-26T20:32:45.732Z,6.72
2023-04-26T20:35:14.013Z,6.82
2023-04-26T20:37:42.273Z,6.75
2023-04-26T20:40:11.668Z,6.74
2023-04-26T20:42:41.401Z,6.68
2023-04-26T20:45:11.411Z,6.70
2023-04-26T20:47:39.728Z,6.70
2023-04-26T20:50:09.703Z,6.65
2023-04-26T20:52:38.056Z,6.51
2023-04-26T20:55:07.749Z,6.43
2023-04-26T20:57:36.096Z,6.38
2023-04-26T21:00:07.622Z,6.28
2023-04-26T21:02:36.196Z,6.23
2023-04-26T21:05:04.962Z,5.86
2023-04-26T21:07:33.294Z,6.10
2023-04-26T21:10:02.089Z,5.99
2023-04-26T21:12:30.481Z,6.11
2023-04-26T21:14:58.774Z,6.18
2023-04-26T21:17:28.395Z,6.16
2023-04-26T21:19:56.614Z,6.17
2023-04-26T21:22:24.867Z,6.20
2023-04-26T21:24:53.123Z,6.21
2023-04-26T21:27:21.326Z,6.18
2023-04-26T21:29:49.616Z,6.11
2023-04-26T21:32:17.860Z,6.14
2023-04-26T21:34:47.478Z,6.24
2023-04-26T21:37:16.764Z,6.15
2023-04-26T21:39:45.057Z,6.07
2023-04-26T21:42:13.345Z,6.01
2023-04-26T21:44:41.512Z,5.99
2023-04-26T21:47:09.927Z,6.03
2023-04-26T21:49:39.549Z,5.96
2023-04-26T21:52:09.250Z,6.03
2023-04-26T21:54:37.611Z,6.09
2023-04-26T21:57:06.943Z,5.87
2023-04-26T21:59:36.398Z,5.96
2023-04-26T22:02:04.838Z,5.90
2023-04-26T22:04:33.110Z,5.71
2023-04-26T22:07:01.535Z,5.62
2023-04-26T22:09:31.305Z,5.57
2023-04-26T22:11:59.590Z,5.62
2023-04-26T22:14:27.907Z,5.57
2023-04-26T22:16:56.418Z,5.53
2023-04-26T22:19:24.711Z,5.38
2023-04-26T22:21:54.458Z,5.35
2023-04-26T22:24:24.329Z,5.36
2023-04-26T22:26:53.988Z,5.41
2023-04-26T22:29:22.347Z,5.41
2023-04-26T22:31:50.730Z,5.44
2023-04-26T22:34:20.094Z,5.45
2023-04-26T22:36:48.853Z,5.55
2023-04-26T22:39:17.180Z,5.55
2023-04-26T22:41:45.530Z,5.29
2023-04-26T22:44:15.754Z,5.36
2023-04-26T22:46:44.405Z,5.22
2023-04-26T22:49:12.973Z,5.14
2023-04-26T22:51:42.770Z,5.02
2023-04-26T22:54:14.204Z,4.99
2023-04-26T22:56:43.166Z,4.94
2023-04-26T22:59:11.946Z,4.99
2023-04-26T23:01:41.836Z,4.92
2023-04-26T23:04:10.109Z,4.90
2023-04-26T23:06:38.392Z,4.93
2023-04-26T23:09:06.730Z,4.81
2023-04-26T23:11:34.972Z,4.82
2023-04-26T23:14:04.909Z,4.61
2023-04-26T23:16:34.301Z,4.71
2023-04-26T23:19:03.898Z,4.74
2023-04-26T23:21:32.193Z,4.87
2023-04-26T23:24:00.556Z,4.79
2023-04-26T23:26:28.830Z,4.77
2023-04-26T23:28:57.347Z,4.75
2023-04-26T23:31:25.784Z,4.96
2023-04-26T23:33:54.093Z,4.90
2023-04-26T23:36:23.779Z,5.01
2023-04-26T23:38:52.057Z,5.01
2023-04-26T23:41:20.358Z,4.84
2023-04-26T23:43:48.562Z,5.42
2023-04-26T23:46:16.942Z,4.86
2023-04-26T23:48:45.166Z,4.77
2023-04-26T23:51:13.362Z,4.72
2023-04-26T23:53:43.927Z,4.91
2023-04-26T23:56:12.285Z,4.70
2023-04-26T23:58:40.588Z,4.81
